createdAt,value
2018-12-12T00:03:44.704Z,7.10
2018-12-12T00:06:33.299Z,13.50
2018-12-12T00:09:10.145Z,12.20
2018-12-12T00:17:43.716Z,10.07
2018-12-12T00:23:23.215Z,5.40
2018-12-12T00:25:55.201Z,10.43
2018-12-12T00:28:29.798Z,7.50
2018-12-12T00:43:18.582Z,7.20
2018-12-12T00:46:07.839Z,7.80
2018-12-12T00:48:44.803Z,8.90
2018-12-12T00:54:35.289Z,7.77
2018-12-12T00:57:10.724Z,9.37
2018-12-12T01:02:41.997Z,5.43
2018-12-12T01:05:18.122Z,8.87
2018-12-12T01:11:08.415Z,7.03
2018-12-12T01:13:45.705Z,9.53
2018-12-12T01:16:24.772Z,13.17
2018-12-12T01:22:03.044Z,8.87
2018-12-12T01:24:39.008Z,8.57
2018-12-12T01:27:13.830Z,9.03
2018-12-12T01:32:50.623Z,8.93
2018-12-12T01:38:28.131Z,10.87
2018-12-12T01:44:11.684Z,7.90
2018-12-12T01:46:44.223Z,8.53
2018-12-12T01:49:21.879Z,12.43
2018-12-12T01:51:59.685Z,12.70
2018-12-12T02:03:43.886Z,6.03
2018-12-12T02:06:18.037Z,9.23
2018-12-12T02:08:56.084Z,9.87
2018-12-12T02:11:36.862Z,10.07
2018-12-12T02:20:08.878Z,5.77
2018-12-12T02:25:38.408Z,8.83
2018-12-12T02:31:14.611Z,8.90
2018-12-12T02:33:50.085Z,9.23
2018-12-12T02:36:25.408Z,7.57
2018-12-12T02:39:00.815Z,5.57
2018-12-12T02:41:33.358Z,9.20
2018-12-12T02:44:11.250Z,9.53
2018-12-12T02:46:48.302Z,11.50
2018-12-12T02:49:36.100Z,10.87
2018-12-12T02:52:09.119Z,13.30
2018-12-12T02:54:44.640Z,13.13
2018-12-12T03:00:18.349Z,16.33
2018-12-12T03:02:53.920Z,7.97
2018-12-12T03:05:26.825Z,17.33
2018-12-12T03:08:08.525Z,5.23
2018-12-12T03:13:47.866Z,10.70
2018-12-12T03:19:39.302Z,11.80
2018-12-12T03:22:16.561Z,13.63
2018-12-12T03:28:01.989Z,7.50
2018-12-12T03:30:39.912Z,7.93
2018-12-12T03:35:51.237Z,8.50
2018-12-12T03:41:27.662Z,9.60
2018-12-12T03:44:03.561Z,7.10
2018-12-12T03:46:39.342Z,10.90
2018-12-12T03:55:12.601Z,9.07
2018-12-12T03:57:48.403Z,6.93
2018-12-12T04:00:29.015Z,8.60
2018-12-12T04:09:10.097Z,9.53
2018-12-12T04:27:39.862Z,7.47
2018-12-12T04:30:16.954Z,7.03
2018-12-12T04:51:08.153Z,8.37
2018-12-12T04:53:50.489Z,7.20
2018-12-12T04:56:30.417Z,8.97
2018-12-12T05:32:24.130Z,10.80
2018-12-12T05:35:00.576Z,15.47
2018-12-12T05:37:39.731Z,9.23
2018-12-12T05:40:12.591Z,11.13
2018-12-12T05:42:45.030Z,13.00
2018-12-12T05:45:27.259Z,9.07
2018-12-12T07:20:58.565Z,16.00
2018-12-12T07:29:35.249Z,19.27
2018-12-12T07:32:10.914Z,11.57
2018-12-12T07:34:44.988Z,15.80
2018-12-12T07:37:20.706Z,13.97
2018-12-12T07:40:01.797Z,16.13
2018-12-12T07:42:36.991Z,15.70
2018-12-12T07:45:22.829Z,18.50
2018-12-12T07:48:01.276Z,12.80
2018-12-12T07:50:32.119Z,17.23
2018-12-12T07:53:07.134Z,15.43
2018-12-12T07:55:44.094Z,19.47
2018-12-12T07:58:20.386Z,13.10
2018-12-12T08:00:58.572Z,10.20
2018-12-12T09:31:40.420Z,28.53
2018-12-12T09:34:15.738Z,28.80
2018-12-12T09:37:07.448Z,29.17
2018-12-12T09:39:44.003Z,30.47
2018-12-12T09:42:18.838Z,28.23
2018-12-12T09:44:54.618Z,27.53
2018-12-12T09:47:27.323Z,28.07
2018-12-12T09:49:59.171Z,22.93
2018-12-12T09:52:28.947Z,26.83
2018-12-12T09:54:59.738Z,23.00
2018-12-12T09:57:32.692Z,24.67
2018-12-12T10:00:05.384Z,28.97
2018-12-12T10:02:37.680Z,20.30
2018-12-12T10:05:09.594Z,18.07
2018-12-12T10:07:41.744Z,28.80
2018-12-12T10:10:13.896Z,26.77
2018-12-12T10:12:48.740Z,18.73
2018-12-12T10:15:23.187Z,16.90
2018-12-12T10:17:55.694Z,18.57
2018-12-12T10:20:27.579Z,17.90
2018-12-12T10:22:57.534Z,25.97
2018-12-12T10:25:27.594Z,20.20
2018-12-12T10:27:59.467Z,19.53
2018-12-12T10:30:31.384Z,16.93
2018-12-12T10:33:05.705Z,16.00
2018-12-12T10:35:38.149Z,23.30
2018-12-12T10:38:10.297Z,19.97
2018-12-12T10:40:45.170Z,12.97
2018-12-12T10:43:20.099Z,15.27
2018-12-12T10:45:52.503Z,22.03
2018-12-12T10:48:24.352Z,17.73
2018-12-12T10:50:54.164Z,20.47
2018-12-12T10:53:25.869Z,16.33
2018-12-12T10:55:58.201Z,21.33
2018-12-12T10:58:30.116Z,16.47
2018-12-12T11:01:05.606Z,16.70
2018-12-12T11:03:44.374Z,11.73
2018-12-12T11:06:15.608Z,15.57
2018-12-12T11:08:47.881Z,17.33
2018-12-12T11:11:19.906Z,12.37
2018-12-12T11:13:52.020Z,16.67
2018-12-12T11:16:24.370Z,18.00
2018-12-12T11:18:55.954Z,20.53
2018-12-12T11:21:25.760Z,21.30
2018-12-12T11:23:55.656Z,22.90
2018-12-12T11:26:30.338Z,20.83
2018-12-12T11:29:00.487Z,23.07
2018-12-12T11:31:31.515Z,25.33
2018-12-12T11:34:03.489Z,25.33
2018-12-12T11:36:35.454Z,23.20
2018-12-12T11:39:09.729Z,22.70
2018-12-12T11:41:45.717Z,19.17
2018-12-12T11:44:18.226Z,14.87
2018-12-12T11:46:51.106Z,16.97
2018-12-12T11:49:21.791Z,18.10
2018-12-12T11:51:52.051Z,15.97
2018-12-12T11:54:22.336Z,19.93
2018-12-12T11:56:54.320Z,17.60
2018-12-12T11:59:25.964Z,17.20
2018-12-12T12:02:04.369Z,18.93
2018-12-12T12:04:36.429Z,18.77
2018-12-12T12:07:10.330Z,12.60
2018-12-12T12:09:48.244Z,15.40
2018-12-12T12:12:20.351Z,13.50
2018-12-12T12:14:54.201Z,11.83
2018-12-12T12:17:26.657Z,11.67
2018-12-12T12:19:58.590Z,15.77
2018-12-12T12:22:30.866Z,10.90
2018-12-12T12:25:06.666Z,18.10
2018-12-12T12:27:38.300Z,18.10
2018-12-12T12:30:10.658Z,15.57
2018-12-12T12:32:42.507Z,17.60
2018-12-12T12:35:16.735Z,15.33
2018-12-12T12:37:51.180Z,15.50
2018-12-12T12:40:27.089Z,13.53
2018-12-12T12:43:02.162Z,17.10
2018-12-12T12:45:34.711Z,14.10
2018-12-12T12:48:06.333Z,21.47
2018-12-12T12:50:38.280Z,25.33
2018-12-12T12:53:10.252Z,21.37
2018-12-12T12:55:43.213Z,17.37
2018-12-12T12:58:13.375Z,12.10
2018-12-12T13:00:47.727Z,12.03
2018-12-12T13:03:19.382Z,13.00
2018-12-12T13:05:53.891Z,15.03
2018-12-12T13:08:28.609Z,10.37
2018-12-12T13:11:00.829Z,14.90
2018-12-12T13:13:33.163Z,18.87
2018-12-12T13:16:07.533Z,16.57
2018-12-12T13:18:37.925Z,13.13
2018-12-12T13:21:09.980Z,14.50
2018-12-12T13:23:41.901Z,14.63
2018-12-12T13:26:13.508Z,15.80
2018-12-12T13:28:45.927Z,15.97
2018-12-12T13:31:17.610Z,14.43
2018-12-12T13:33:49.973Z,13.30
2018-12-12T13:36:19.877Z,10.60
2018-12-12T13:38:51.783Z,11.67
2018-12-12T13:43:52.901Z,13.37
2018-12-12T13:48:57.998Z,12.90
2018-12-12T13:51:29.637Z,11.83
2018-12-12T13:54:01.736Z,13.10
2018-12-12T13:56:36.154Z,12.30
2018-12-12T13:59:08.510Z,16.13
2018-12-12T14:01:40.715Z,11.20
2018-12-12T14:04:14.944Z,13.30
2018-12-12T14:06:47.446Z,15.30
2018-12-12T14:09:19.208Z,17.73
2018-12-12T14:11:50.850Z,12.20
2018-12-12T14:14:23.272Z,11.27
2018-12-12T14:16:55.391Z,13.40
2018-12-12T14:19:25.226Z,13.70
2018-12-12T14:21:55.134Z,12.93
2018-12-12T14:24:27.181Z,12.90
2018-12-12T14:26:59.291Z,12.63
2018-12-12T14:29:31.275Z,15.63
2018-12-12T14:32:00.985Z,16.23
2018-12-12T14:34:31.172Z,15.23
2018-12-12T14:37:03.531Z,14.20
2018-12-12T14:39:33.603Z,14.00
2018-12-12T14:42:05.395Z,18.73
2018-12-12T14:44:37.434Z,13.30
2018-12-12T14:47:09.370Z,13.13
2018-12-12T14:49:41.423Z,18.30
2018-12-12T14:52:15.834Z,14.43
2018-12-12T14:54:47.514Z,15.20
2018-12-12T14:57:19.862Z,14.90
2018-12-12T14:59:51.826Z,20.60
2018-12-12T15:02:26.195Z,20.63
2018-12-12T15:04:58.601Z,19.50
2018-12-12T15:07:28.626Z,16.07
2018-12-12T15:10:00.630Z,18.33
2018-12-12T15:12:34.885Z,15.57
2018-12-12T15:15:05.785Z,18.10
2018-12-12T15:17:38.192Z,24.73
2018-12-12T15:20:08.234Z,21.70
2018-12-12T15:22:38.226Z,20.77
2018-12-12T15:25:09.940Z,15.20
2018-12-12T15:27:42.155Z,19.33
2018-12-12T15:30:16.581Z,24.70
2018-12-12T15:32:49.016Z,18.73
2018-12-12T15:35:24.937Z,15.50
2018-12-12T15:37:56.804Z,14.37
2018-12-12T15:40:28.991Z,18.00
2018-12-12T15:43:01.154Z,20.23
2018-12-12T15:45:32.946Z,20.50
2018-12-12T15:48:05.283Z,20.53
2018-12-12T15:50:37.016Z,37.70
2018-12-12T15:55:39.896Z,22.50
2018-12-12T15:58:11.993Z,21.67
2018-12-12T16:00:46.145Z,18.40
2018-12-12T16:03:20.214Z,26.30
2018-12-12T16:05:52.558Z,22.03
2018-12-12T16:08:24.506Z,23.00
2018-12-12T16:10:58.866Z,27.50
2018-12-12T16:13:33.048Z,19.90
2018-12-12T16:16:06.812Z,21.30
2018-12-12T16:18:38.501Z,19.90
2018-12-12T16:21:11.117Z,21.10
2018-12-12T16:23:43.565Z,21.90
2018-12-12T16:26:15.424Z,20.23
2018-12-12T16:28:47.247Z,23.40
2018-12-12T16:31:19.418Z,28.33
2018-12-12T16:33:53.668Z,31.00
2018-12-12T16:36:26.374Z,33.47
2018-12-12T16:38:56.431Z,23.43
2018-12-12T16:41:28.754Z,23.87
2018-12-12T16:44:00.698Z,19.10
2018-12-12T16:46:32.645Z,19.40
2018-12-12T16:49:04.474Z,20.13
2018-12-12T16:51:36.955Z,20.83
2018-12-12T16:54:10.009Z,15.60
2018-12-12T16:56:44.418Z,18.67
2018-12-12T16:59:16.973Z,30.23
2018-12-12T17:01:47.706Z,28.80
2018-12-12T17:04:21.653Z,21.30
2018-12-12T17:06:51.546Z,27.47
2018-12-12T17:09:21.441Z,25.97
2018-12-12T17:11:53.803Z,35.23
2018-12-12T17:14:27.398Z,18.80
2018-12-12T17:16:59.535Z,19.90
2018-12-12T17:19:29.838Z,26.07
2018-12-12T17:22:02.288Z,30.63
2018-12-12T17:24:34.039Z,24.97
2018-12-12T17:27:05.768Z,26.37
2018-12-12T17:29:37.875Z,25.43
2018-12-12T17:32:10.145Z,22.30
2018-12-12T17:34:42.218Z,20.63
2018-12-12T17:37:14.556Z,19.93
2018-12-12T17:39:47.113Z,18.03
2018-12-12T17:42:17.115Z,23.17
2018-12-12T17:44:49.302Z,23.53
2018-12-12T17:47:23.501Z,23.93
2018-12-12T17:49:57.064Z,26.03
2018-12-12T17:52:29.464Z,26.67
2018-12-12T17:55:01.412Z,26.80
2018-12-12T18:00:00.108Z,25.47
2018-12-12T18:02:32.378Z,32.40
2018-12-12T18:05:04.806Z,26.93
2018-12-12T18:07:36.593Z,28.80
2018-12-12T18:10:08.703Z,24.13
2018-12-12T18:12:39.098Z,22.20
2018-12-12T18:15:11.038Z,24.90
2018-12-12T18:17:45.534Z,32.30
2018-12-12T18:20:19.502Z,25.70
2018-12-12T18:22:51.176Z,19.90
2018-12-12T18:25:25.490Z,20.00
2018-12-12T18:27:57.208Z,27.17
2018-12-12T18:30:31.924Z,22.40
2018-12-12T18:33:06.435Z,24.93
2018-12-12T18:35:36.896Z,21.40
2018-12-12T18:38:11.253Z,24.17
2018-12-12T18:40:43.342Z,21.20
2018-12-12T18:43:15.333Z,24.53
2018-12-12T18:45:48.302Z,22.63
2018-12-12T18:48:18.407Z,25.40
2018-12-12T18:50:50.271Z,26.97
2018-12-12T18:53:22.595Z,20.80
2018-12-12T18:55:55.205Z,20.33
2018-12-12T19:03:26.165Z,27.37
2018-12-12T19:05:58.115Z,40.63
2018-12-12T19:08:30.214Z,31.60
2018-12-12T19:11:06.106Z,18.73
2018-12-12T19:13:37.934Z,22.50
2018-12-12T19:16:10.074Z,17.83
2018-12-12T19:18:39.824Z,15.50
2018-12-12T19:21:12.017Z,14.90
2018-12-12T19:23:44.488Z,11.97
2018-12-12T19:26:16.349Z,21.80
2018-12-12T19:28:48.126Z,27.23
2018-12-12T19:31:20.696Z,26.10
2018-12-12T19:33:50.955Z,17.03
2018-12-12T19:36:23.374Z,16.67
2018-12-12T19:38:55.342Z,10.33
2018-12-12T19:41:27.790Z,13.97
2018-12-12T19:44:00.399Z,8.83
2018-12-12T19:46:32.386Z,9.43
2018-12-12T19:49:05.565Z,5.80
2018-12-12T19:51:37.778Z,8.07
2018-12-12T19:54:09.903Z,8.83
2018-12-12T19:56:42.502Z,9.43
2018-12-12T19:59:17.069Z,9.13
2018-12-12T20:01:49.128Z,9.30
2018-12-12T20:04:24.106Z,11.20
2018-12-12T20:06:54.148Z,7.00
2018-12-12T20:09:28.697Z,7.47
2018-12-12T20:12:02.579Z,8.13
2018-12-12T20:14:34.181Z,6.30
2018-12-12T20:17:05.899Z,7.10
2018-12-12T20:19:37.626Z,7.23
2018-12-12T20:22:09.779Z,9.27
2018-12-12T20:24:41.923Z,6.93
2018-12-12T20:27:13.842Z,6.00
2018-12-12T20:29:46.643Z,5.40
2018-12-12T20:32:18.916Z,6.80
2018-12-12T20:34:51.567Z,7.50
2018-12-12T20:37:26.455Z,7.40
2018-12-12T20:39:58.882Z,8.03
2018-12-12T20:42:29.129Z,5.63
2018-12-12T20:45:01.723Z,6.97
2018-12-12T20:47:36.160Z,7.13
2018-12-12T20:50:08.263Z,8.10
2018-12-12T20:52:41.071Z,6.43
2018-12-12T20:55:16.304Z,10.20
2018-12-12T20:57:49.714Z,8.10
2018-12-12T21:00:22.622Z,6.80
2018-12-12T21:02:57.217Z,7.37
2018-12-12T21:08:01.354Z,6.13
2018-12-12T21:10:33.075Z,7.17
2018-12-12T21:13:05.130Z,6.67
2018-12-12T21:15:36.440Z,9.20
2018-12-12T21:18:10.834Z,9.87
2018-12-12T21:20:42.865Z,9.93
2018-12-12T21:23:13.051Z,9.13
2018-12-12T21:25:48.324Z,9.33
2018-12-12T21:28:23.552Z,7.03
2018-12-12T21:30:56.011Z,7.67
2018-12-12T21:33:28.043Z,7.10
2018-12-12T21:36:03.216Z,7.97
2018-12-12T21:38:35.250Z,11.27
2018-12-12T21:41:09.881Z,6.00
2018-12-12T21:43:43.964Z,10.30
2018-12-12T21:49:18.008Z,6.33
2018-12-12T21:51:54.289Z,6.40
2018-12-12T21:54:26.174Z,9.03
2018-12-12T21:57:01.294Z,7.00
2018-12-12T21:59:35.186Z,9.67
2018-12-12T22:02:10.743Z,6.83
2018-12-12T22:04:46.545Z,8.87
2018-12-12T22:07:18.862Z,9.07
2018-12-12T22:09:51.203Z,8.70
2018-12-12T22:12:27.545Z,11.07
2018-12-12T22:14:58.038Z,11.07
2018-12-12T22:17:30.852Z,6.97
2018-12-12T22:20:16.070Z,7.67
2018-12-12T22:22:50.210Z,8.50
2018-12-12T22:25:25.408Z,10.00
2018-12-12T22:27:56.767Z,8.83
2018-12-12T22:30:33.219Z,9.70
2018-12-12T22:33:09.056Z,14.40
2018-12-12T22:35:44.002Z,19.20
2018-12-12T22:38:19.712Z,17.43
2018-12-12T22:40:55.600Z,14.90
2018-12-12T22:43:32.497Z,17.50
2018-12-12T22:46:05.221Z,17.93
2018-12-12T22:48:41.306Z,13.90
2018-12-12T22:51:17.162Z,11.43
2018-12-12T22:53:52.976Z,9.20
2018-12-12T22:59:32.425Z,8.60
2018-12-12T23:05:11.856Z,10.73
2018-12-12T23:16:55.052Z,9.13
2018-12-12T23:25:25.745Z,11.20
2018-12-12T23:28:03.838Z,7.63
2018-12-12T23:33:54.811Z,9.23
2018-12-12T23:36:31.132Z,5.83
2018-12-12T23:39:05.196Z,7.50
2018-12-12T23:41:41.035Z,8.17
2018-12-12T23:47:19.494Z,7.50
2018-12-12T23:56:12.327Z,8.23
2018-12-12T23:58:55.194Z,7.80
